sensor_id;sensor_type;location;lat;lon;timestamp;temperature;humidity
49503;DHT22;35409;48.776;9.204;2023-09-19T00:02:16;17.60;99.90
49503;DHT22;35409;48.776;9.204;2023-09-19T00:04:42;17.50;99.90
49503;DHT22;35409;48.776;9.204;2023-09-19T00:07:08;17.50;99.90
49503;DHT22;35409;48.776;9.204;2023-09-19T00:09:37;17.50;99.90
49503;DHT22;35409;48.776;9.204;2023-09-19T00:12:05;17.50;99.90
49503;DHT22;35409;48.776;9.204;2023-09-19T00:14:30;17.50;99.90
49503;DHT22;35409;48.776;9.204;2023-09-19T00:17:00;17.50;99.90
49503;DHT22;35409;48.776;9.204;2023-09-19T00:19:26;17.50;99.90
49503;DHT22;35409;48.776;9.204;2023-09-19T00:21:52;17.40;99.90
49503;DHT22;35409;48.776;9.204;2023-09-19T00:24:18;17.40;99.90
49503;DHT22;35409;48.776;9.204;2023-09-19T00:26:44;17.40;99.90
49503;DHT22;35409;48.776;9.204;2023-09-19T00:29:12;17.30;99.90
49503;DHT22;35409;48.776;9.204;2023-09-19T00:31:43;17.30;99.90
49503;DHT22;35409;48.776;9.204;2023-09-19T00:34:09;17.20;99.90
49503;DHT22;35409;48.776;9.204;2023-09-19T00:36:36;17.10;99.90
49503;DHT22;35409;48.776;9.204;2023-09-19T00:39:04;17.10;99.90
49503;DHT22;35409;48.776;9.204;2023-09-19T00:41:33;17.10;99.90
49503;DHT22;35409;48.776;9.204;2023-09-19T00:44:01;17.10;99.90
49503;DHT22;35409;48.776;9.204;2023-09-19T00:46:27;17.00;99.90
49503;DHT22;35409;48.776;9.204;2023-09-19T00:48:53;17.00;99.90
49503;DHT22;35409;48.776;9.204;2023-09-19T00:51:20;17.00;99.90
49503;DHT22;35409;48.776;9.204;2023-09-19T00:53:47;16.90;99.90
49503;DHT22;35409;48.776;9.204;2023-09-19T00:56:14;16.90;99.90
49503;DHT22;35409;48.776;9.204;2023-09-19T00:58:40;16.90;99.90
49503;DHT22;35409;48.776;9.204;2023-09-19T01:01:06;16.90;99.90
49503;DHT22;35409;48.776;9.204;2023-09-19T01:03:38;16.90;99.90
49503;DHT22;35409;48.776;9.204;2023-09-19T01:06:05;16.90;99.90
49503;DHT22;35409;48.776;9.204;2023-09-19T01:08:31;16.90;99.90
49503;DHT22;35409;48.776;9.204;2023-09-19T01:11:06;17.00;99.90
49503;DHT22;35409;48.776;9.204;2023-09-19T01:14:05;17.00;99.90
49503;DHT22;35409;48.776;9.204;2023-09-19T01:16:44;17.10;99.90
49503;DHT22;35409;48.776;9.204;2023-09-19T01:25:02;17.10;99.90
49503;DHT22;35409;48.776;9.204;2023-09-19T01:29:42;17.10;99.90
49503;DHT22;35409;48.776;9.204;2023-09-19T01:32:11;17.10;99.90
49503;DHT22;35409;48.776;9.204;2023-09-19T01:34:47;17.10;99.90
49503;DHT22;35409;48.776;9.204;2023-09-19T01:37:14;17.10;99.90
49503;DHT22;35409;48.776;9.204;2023-09-19T01:39:48;17.00;99.90
49503;DHT22;35409;48.776;9.204;2023-09-19T01:42:37;17.00;99.90
49503;DHT22;35409;48.776;9.204;2023-09-19T01:47:59;17.10;99.90
49503;DHT22;35409;48.776;9.204;2023-09-19T01:50:42;17.10;99.90
49503;DHT22;35409;48.776;9.204;2023-09-19T01:55:49;17.20;99.90
49503;DHT22;35409;48.776;9.204;2023-09-19T01:58:27;17.20;99.90
49503;DHT22;35409;48.776;9.204;2023-09-19T02:00:56;17.20;99.90
49503;DHT22;35409;48.776;9.204;2023-09-19T02:03:24;17.20;99.90
49503;DHT22;35409;48.776;9.204;2023-09-19T02:05:51;17.20;99.90
49503;DHT22;35409;48.776;9.204;2023-09-19T02:08:20;17.20;99.90
49503;DHT22;35409;48.776;9.204;2023-09-19T02:10:46;17.20;99.90
49503;DHT22;35409;48.776;9.204;2023-09-19T02:13:18;17.20;99.90
49503;DHT22;35409;48.776;9.204;2023-09-19T02:15:45;17.20;99.90
49503;DHT22;35409;48.776;9.204;2023-09-19T02:18:14;17.20;99.90
49503;DHT22;35409;48.776;9.204;2023-09-19T02:20:40;17.10;99.90
49503;DHT22;35409;48.776;9.204;2023-09-19T02:23:06;17.10;99.90
49503;DHT22;35409;48.776;9.204;2023-09-19T02:25:33;17.10;99.90
49503;DHT22;35409;48.776;9.204;2023-09-19T02:27:59;17.10;99.90
49503;DHT22;35409;48.776;9.204;2023-09-19T02:30:26;17.00;99.90
49503;DHT22;35409;48.776;9.204;2023-09-19T02:32:52;17.00;99.90
49503;DHT22;35409;48.776;9.204;2023-09-19T02:35:17;17.00;99.90
49503;DHT22;35409;48.776;9.204;2023-09-19T02:37:46;17.00;99.90
49503;DHT22;35409;48.776;9.204;2023-09-19T02:40:13;16.90;99.90
49503;DHT22;35409;48.776;9.204;2023-09-19T02:42:46;16.90;99.90
49503;DHT22;35409;48.776;9.204;2023-09-19T02:45:18;16.80;99.90
49503;DHT22;35409;48.776;9.204;2023-09-19T02:47:47;16.80;99.90
49503;DHT22;35409;48.776;9.204;2023-09-19T02:50:13;16.80;99.90
49503;DHT22;35409;48.776;9.204;2023-09-19T02:52:42;16.80;99.90
49503;DHT22;35409;48.776;9.204;2023-09-19T02:55:15;16.70;99.90
49503;DHT22;35409;48.776;9.204;2023-09-19T02:57:53;16.70;99.90
49503;DHT22;35409;48.776;9.204;2023-09-19T03:00:23;16.70;99.90
49503;DHT22;35409;48.776;9.204;2023-09-19T03:02:50;16.70;99.90
49503;DHT22;35409;48.776;9.204;2023-09-19T03:05:16;16.80;99.90
49503;DHT22;35409;48.776;9.204;2023-09-19T03:07:41;16.80;99.90
49503;DHT22;35409;48.776;9.204;2023-09-19T03:10:09;16.80;99.90
49503;DHT22;35409;48.776;9.204;2023-09-19T03:12:35;16.80;99.90
49503;DHT22;35409;48.776;9.204;2023-09-19T03:15:01;16.90;99.90
49503;DHT22;35409;48.776;9.204;2023-09-19T03:17:27;17.00;99.90
49503;DHT22;35409;48.776;9.204;2023-09-19T03:19:52;17.00;99.90
49503;DHT22;35409;48.776;9.204;2023-09-19T03:22:19;17.00;99.90
49503;DHT22;35409;48.776;9.204;2023-09-19T03:24:45;17.00;99.90
49503;DHT22;35409;48.776;9.204;2023-09-19T03:27:12;17.00;99.90
49503;DHT22;35409;48.776;9.204;2023-09-19T03:29:39;16.90;99.90
49503;DHT22;35409;48.776;9.204;2023-09-19T03:32:05;16.90;99.90
49503;DHT22;35409;48.776;9.204;2023-09-19T03:34:30;16.90;99.90
49503;DHT22;35409;48.776;9.204;2023-09-19T03:36:56;16.90;99.90
49503;DHT22;35409;48.776;9.204;2023-09-19T03:39:22;16.80;99.90
49503;DHT22;35409;48.776;9.204;2023-09-19T03:41:48;16.80;99.90
49503;DHT22;35409;48.776;9.204;2023-09-19T03:44:15;16.90;99.90
49503;DHT22;35409;48.776;9.204;2023-09-19T03:46:40;16.90;99.90
49503;DHT22;35409;48.776;9.204;2023-09-19T03:49:06;16.90;99.90
49503;DHT22;35409;48.776;9.204;2023-09-19T03:51:31;16.90;99.90
49503;DHT22;35409;48.776;9.204;2023-09-19T03:53:59;16.90;99.90
49503;DHT22;35409;48.776;9.204;2023-09-19T03:56:25;16.90;99.90
49503;DHT22;35409;48.776;9.204;2023-09-19T03:58:51;16.90;99.90
49503;DHT22;35409;48.776;9.204;2023-09-19T04:01:16;16.90;99.90
49503;DHT22;35409;48.776;9.204;2023-09-19T04:03:43;16.90;99.90
49503;DHT22;35409;48.776;9.204;2023-09-19T04:06:16;16.90;99.90
49503;DHT22;35409;48.776;9.204;2023-09-19T04:08:42;16.90;99.90
49503;DHT22;35409;48.776;9.204;2023-09-19T04:11:08;16.90;99.90
49503;DHT22;35409;48.776;9.204;2023-09-19T04:13:34;16.90;99.90
49503;DHT22;35409;48.776;9.204;2023-09-19T04:16:00;16.90;99.90
49503;DHT22;35409;48.776;9.204;2023-09-19T04:18:26;16.80;99.90
49503;DHT22;35409;48.776;9.204;2023-09-19T04:20:52;16.80;99.90
49503;DHT22;35409;48.776;9.204;2023-09-19T04:23:18;16.70;99.90
49503;DHT22;35409;48.776;9.204;2023-09-19T04:25:46;16.80;99.90
49503;DHT22;35409;48.776;9.204;2023-09-19T04:28:13;16.80;99.90
49503;DHT22;35409;48.776;9.204;2023-09-19T04:30:39;16.70;99.90
49503;DHT22;35409;48.776;9.204;2023-09-19T04:33:08;16.70;99.90
49503;DHT22;35409;48.776;9.204;2023-09-19T04:35:34;16.70;99.90
49503;DHT22;35409;48.776;9.204;2023-09-19T04:38:00;16.70;99.90
49503;DHT22;35409;48.776;9.204;2023-09-19T04:40:26;16.60;99.90
49503;DHT22;35409;48.776;9.204;2023-09-19T04:42:55;16.60;99.90
49503;DHT22;35409;48.776;9.204;2023-09-19T04:45:24;16.60;99.90
49503;DHT22;35409;48.776;9.204;2023-09-19T04:47:50;16.70;99.90
49503;DHT22;35409;48.776;9.204;2023-09-19T04:50:16;16.70;99.90
49503;DHT22;35409;48.776;9.204;2023-09-19T04:52:44;16.70;99.90
49503;DHT22;35409;48.776;9.204;2023-09-19T04:55:14;16.70;99.90
49503;DHT22;35409;48.776;9.204;2023-09-19T04:57:46;16.70;99.90
49503;DHT22;35409;48.776;9.204;2023-09-19T05:00:18;16.60;99.90
49503;DHT22;35409;48.776;9.204;2023-09-19T05:02:44;16.50;99.90
49503;DHT22;35409;48.776;9.204;2023-09-19T05:05:10;16.40;99.90
49503;DHT22;35409;48.776;9.204;2023-09-19T05:07:38;16.20;99.90
49503;DHT22;35409;48.776;9.204;2023-09-19T05:10:05;16.10;99.90
49503;DHT22;35409;48.776;9.204;2023-09-19T05:12:34;15.90;99.90
49503;DHT22;35409;48.776;9.204;2023-09-19T05:15:04;15.90;99.90
49503;DHT22;35409;48.776;9.204;2023-09-19T05:17:30;15.80;99.90
49503;DHT22;35409;48.776;9.204;2023-09-19T05:19:57;15.70;99.90
49503;DHT22;35409;48.776;9.204;2023-09-19T05:22:23;15.60;99.90
49503;DHT22;35409;48.776;9.204;2023-09-19T05:24:50;15.60;99.90
49503;DHT22;35409;48.776;9.204;2023-09-19T05:27:16;15.50;99.90
49503;DHT22;35409;48.776;9.204;2023-09-19T05:29:43;15.40;99.90
49503;DHT22;35409;48.776;9.204;2023-09-19T05:32:10;15.40;99.90
49503;DHT22;35409;48.776;9.204;2023-09-19T05:34:36;15.40;99.90
49503;DHT22;35409;48.776;9.204;2023-09-19T05:37:02;15.40;99.90
49503;DHT22;35409;48.776;9.204;2023-09-19T05:39:28;15.40;99.90
49503;DHT22;35409;48.776;9.204;2023-09-19T05:41:53;15.40;99.90
49503;DHT22;35409;48.776;9.204;2023-09-19T05:44:19;15.40;99.90
49503;DHT22;35409;48.776;9.204;2023-09-19T05:46:45;15.50;99.90
49503;DHT22;35409;48.776;9.204;2023-09-19T05:49:13;15.50;99.90
49503;DHT22;35409;48.776;9.204;2023-09-19T05:51:39;15.70;99.90
49503;DHT22;35409;48.776;9.204;2023-09-19T05:54:05;15.60;99.90
49503;DHT22;35409;48.776;9.204;2023-09-19T05:56:31;15.40;99.90
49503;DHT22;35409;48.776;9.204;2023-09-19T05:58:56;15.30;99.90
49503;DHT22;35409;48.776;9.204;2023-09-19T06:01:22;15.20;99.90
49503;DHT22;35409;48.776;9.204;2023-09-19T06:03:48;15.10;99.90
49503;DHT22;35409;48.776;9.204;2023-09-19T06:06:14;15.00;99.90
49503;DHT22;35409;48.776;9.204;2023-09-19T06:08:39;14.90;99.90
49503;DHT22;35409;48.776;9.204;2023-09-19T06:11:05;14.90;99.90
49503;DHT22;35409;48.776;9.204;2023-09-19T06:13:34;14.90;99.90
49503;DHT22;35409;48.776;9.204;2023-09-19T06:16:00;14.90;99.90
49503;DHT22;35409;48.776;9.204;2023-09-19T06:18:33;14.90;99.90
49503;DHT22;35409;48.776;9.204;2023-09-19T06:21:01;15.00;99.90
49503;DHT22;35409;48.776;9.204;2023-09-19T06:23:33;15.00;99.90
49503;DHT22;35409;48.776;9.204;2023-09-19T06:26:02;15.00;99.90
49503;DHT22;35409;48.776;9.204;2023-09-19T06:28:28;15.00;99.90
49503;DHT22;35409;48.776;9.204;2023-09-19T06:30:55;15.00;99.90
49503;DHT22;35409;48.776;9.204;2023-09-19T06:33:20;14.90;99.90
49503;DHT22;35409;48.776;9.204;2023-09-19T06:35:47;14.90;99.90
49503;DHT22;35409;48.776;9.204;2023-09-19T06:38:13;14.90;99.90
49503;DHT22;35409;48.776;9.204;2023-09-19T06:40:41;14.90;99.90
49503;DHT22;35409;48.776;9.204;2023-09-19T06:43:12;15.00;99.90
49503;DHT22;35409;48.776;9.204;2023-09-19T06:45:39;15.10;99.90
49503;DHT22;35409;48.776;9.204;2023-09-19T06:48:05;15.10;99.90
49503;DHT22;35409;48.776;9.204;2023-09-19T06:50:31;15.30;99.90
49503;DHT22;35409;48.776;9.204;2023-09-19T06:52:58;15.30;99.90
49503;DHT22;35409;48.776;9.204;2023-09-19T06:55:26;15.40;99.90
49503;DHT22;35409;48.776;9.204;2023-09-19T06:57:53;15.50;99.90
49503;DHT22;35409;48.776;9.204;2023-09-19T07:00:21;15.60;99.90
49503;DHT22;35409;48.776;9.204;2023-09-19T07:03:05;15.60;99.90
49503;DHT22;35409;48.776;9.204;2023-09-19T07:05:34;15.60;99.90
49503;DHT22;35409;48.776;9.204;2023-09-19T07:08:05;15.70;99.90
49503;DHT22;35409;48.776;9.204;2023-09-19T07:10:32;15.70;99.90
49503;DHT22;35409;48.776;9.204;2023-09-19T07:13:02;15.70;99.90
49503;DHT22;35409;48.776;9.204;2023-09-19T07:15:29;15.80;99.90
49503;DHT22;35409;48.776;9.204;2023-09-19T07:17:56;15.90;99.90
49503;DHT22;35409;48.776;9.204;2023-09-19T07:20:24;15.90;99.90
49503;DHT22;35409;48.776;9.204;2023-09-19T07:22:53;16.00;99.90
49503;DHT22;35409;48.776;9.204;2023-09-19T07:25:20;16.00;99.90
49503;DHT22;35409;48.776;9.204;2023-09-19T07:27:46;16.10;99.90
49503;DHT22;35409;48.776;9.204;2023-09-19T07:30:12;16.10;99.90
49503;DHT22;35409;48.776;9.204;2023-09-19T07:32:38;16.20;99.90
49503;DHT22;35409;48.776;9.204;2023-09-19T07:35:04;16.20;99.90
49503;DHT22;35409;48.776;9.204;2023-09-19T07:37:31;16.20;99.90
49503;DHT22;35409;48.776;9.204;2023-09-19T07:40:07;16.20;99.90
49503;DHT22;35409;48.776;9.204;2023-09-19T07:42:37;16.30;99.90
49503;DHT22;35409;48.776;9.204;2023-09-19T07:45:04;16.30;99.90
49503;DHT22;35409;48.776;9.204;2023-09-19T07:47:30;16.30;99.90
49503;DHT22;35409;48.776;9.204;2023-09-19T07:49:58;16.40;99.90
49503;DHT22;35409;48.776;9.204;2023-09-19T07:52:24;16.50;99.90
49503;DHT22;35409;48.776;9.204;2023-09-19T07:54:49;16.60;99.90
49503;DHT22;35409;48.776;9.204;2023-09-19T07:57:15;16.70;99.90
49503;DHT22;35409;48.776;9.204;2023-09-19T07:59:41;16.70;99.90
49503;DHT22;35409;48.776;9.204;2023-09-19T08:02:08;16.80;99.90
49503;DHT22;35409;48.776;9.204;2023-09-19T08:04:44;16.80;99.90
49503;DHT22;35409;48.776;9.204;2023-09-19T08:07:11;16.90;99.90
49503;DHT22;35409;48.776;9.204;2023-09-19T08:09:37;17.00;99.90
49503;DHT22;35409;48.776;9.204;2023-09-19T08:12:04;17.00;99.90
49503;DHT22;35409;48.776;9.204;2023-09-19T08:14:30;17.10;99.90
49503;DHT22;35409;48.776;9.204;2023-09-19T08:16:59;17.20;99.90
49503;DHT22;35409;48.776;9.204;2023-09-19T08:19:26;17.40;99.90
49503;DHT22;35409;48.776;9.204;2023-09-19T08:21:58;17.50;99.90
49503;DHT22;35409;48.776;9.204;2023-09-19T08:24:25;17.60;99.90
49503;DHT22;35409;48.776;9.204;2023-09-19T08:26:57;17.60;99.90
49503;DHT22;35409;48.776;9.204;2023-09-19T08:29:23;17.80;99.90
49503;DHT22;35409;48.776;9.204;2023-09-19T08:31:56;17.80;99.90
49503;DHT22;35409;48.776;9.204;2023-09-19T08:34:25;18.00;99.90
49503;DHT22;35409;48.776;9.204;2023-09-19T08:36:52;18.10;99.90
49503;DHT22;35409;48.776;9.204;2023-09-19T08:39:22;18.20;99.90
49503;DHT22;35409;48.776;9.204;2023-09-19T08:41:48;18.30;99.90
49503;DHT22;35409;48.776;9.204;2023-09-19T08:44:13;18.60;99.90
49503;DHT22;35409;48.776;9.204;2023-09-19T08:46:41;18.70;99.90
49503;DHT22;35409;48.776;9.204;2023-09-19T08:49:28;18.80;99.90
49503;DHT22;35409;48.776;9.204;2023-09-19T08:52:07;18.90;99.90
49503;DHT22;35409;48.776;9.204;2023-09-19T08:54:38;19.00;99.90
49503;DHT22;35409;48.776;9.204;2023-09-19T08:57:07;19.00;99.90
49503;DHT22;35409;48.776;9.204;2023-09-19T08:59:38;19.10;99.90
49503;DHT22;35409;48.776;9.204;2023-09-19T09:02:11;19.20;99.90
49503;DHT22;35409;48.776;9.204;2023-09-19T09:04:40;19.20;99.90
49503;DHT22;35409;48.776;9.204;2023-09-19T09:07:10;19.20;99.90
49503;DHT22;35409;48.776;9.204;2023-09-19T09:09:36;19.20;99.90
49503;DHT22;35409;48.776;9.204;2023-09-19T09:12:02;19.30;99.90
49503;DHT22;35409;48.776;9.204;2023-09-19T09:14:28;19.50;99.90
49503;DHT22;35409;48.776;9.204;2023-09-19T09:16:55;19.70;99.90
49503;DHT22;35409;48.776;9.204;2023-09-19T09:19:24;19.80;99.90
49503;DHT22;35409;48.776;9.204;2023-09-19T09:21:51;19.90;99.90
49503;DHT22;35409;48.776;9.204;2023-09-19T09:24:27;20.00;99.90
49503;DHT22;35409;48.776;9.204;2023-09-19T09:26:57;20.20;99.90
49503;DHT22;35409;48.776;9.204;2023-09-19T09:29:47;20.20;99.90
49503;DHT22;35409;48.776;9.204;2023-09-19T09:32:25;20.20;99.90
49503;DHT22;35409;48.776;9.204;2023-09-19T09:34:59;20.40;99.90
49503;DHT22;35409;48.776;9.204;2023-09-19T09:37:26;20.40;99.90
49503;DHT22;35409;48.776;9.204;2023-09-19T09:39:58;20.40;99.90
49503;DHT22;35409;48.776;9.204;2023-09-19T09:42:38;20.40;99.90
49503;DHT22;35409;48.776;9.204;2023-09-19T09:45:23;20.50;99.90
49503;DHT22;35409;48.776;9.204;2023-09-19T09:48:01;20.60;99.90
49503;DHT22;35409;48.776;9.204;2023-09-19T09:50:47;20.70;99.90
49503;DHT22;35409;48.776;9.204;2023-09-19T09:53:29;20.80;99.90
49503;DHT22;35409;48.776;9.204;2023-09-19T09:55:58;21.00;99.90
49503;DHT22;35409;48.776;9.204;2023-09-19T09:58:25;21.20;99.90
49503;DHT22;35409;48.776;9.204;2023-09-19T10:00:58;21.20;99.90
49503;DHT22;35409;48.776;9.204;2023-09-19T10:03:32;21.40;99.90
49503;DHT22;35409;48.776;9.204;2023-09-19T10:06:00;21.70;99.90
49503;DHT22;35409;48.776;9.204;2023-09-19T10:08:27;21.80;99.90
49503;DHT22;35409;48.776;9.204;2023-09-19T10:10:57;22.00;99.90
49503;DHT22;35409;48.776;9.204;2023-09-19T10:13:34;22.10;99.90
49503;DHT22;35409;48.776;9.204;2023-09-19T10:16:06;22.20;99.90
49503;DHT22;35409;48.776;9.204;2023-09-19T10:18:36;22.30;99.90
49503;DHT22;35409;48.776;9.204;2023-09-19T10:21:04;22.40;99.90
49503;DHT22;35409;48.776;9.204;2023-09-19T10:23:32;22.50;99.90
49503;DHT22;35409;48.776;9.204;2023-09-19T10:26:01;22.40;99.90
49503;DHT22;35409;48.776;9.204;2023-09-19T10:28:28;22.50;99.90
49503;DHT22;35409;48.776;9.204;2023-09-19T10:30:56;22.30;99.70
49503;DHT22;35409;48.776;9.204;2023-09-19T10:33:24;22.20;99.90
49503;DHT22;35409;48.776;9.204;2023-09-19T10:35:58;22.00;99.90
49503;DHT22;35409;48.776;9.204;2023-09-19T10:38:25;21.90;99.90
49503;DHT22;35409;48.776;9.204;2023-09-19T10:40:53;21.90;99.90
49503;DHT22;35409;48.776;9.204;2023-09-19T10:43:26;21.90;99.90
49503;DHT22;35409;48.776;9.204;2023-09-19T10:46:00;21.80;99.90
49503;DHT22;35409;48.776;9.204;2023-09-19T10:48:26;21.80;99.60
49503;DHT22;35409;48.776;9.204;2023-09-19T10:51:15;21.60;99.60
49503;DHT22;35409;48.776;9.204;2023-09-19T10:53:54;21.50;99.90
49503;DHT22;35409;48.776;9.204;2023-09-19T10:56:26;21.40;99.90
49503;DHT22;35409;48.776;9.204;2023-09-19T10:59:10;21.40;99.90
49503;DHT22;35409;48.776;9.204;2023-09-19T11:04:34;21.40;99.90
49503;DHT22;35409;48.776;9.204;2023-09-19T11:07:11;21.60;99.90
49503;DHT22;35409;48.776;9.204;2023-09-19T11:09:50;21.80;99.70
49503;DHT22;35409;48.776;9.204;2023-09-19T11:14:59;21.80;99.20
49503;DHT22;35409;48.776;9.204;2023-09-19T11:17:35;21.80;99.60
49503;DHT22;35409;48.776;9.204;2023-09-19T11:30:35;21.90;98.90
49503;DHT22;35409;48.776;9.204;2023-09-19T11:36:13;22.20;98.50
49503;DHT22;35409;48.776;9.204;2023-09-19T11:43:54;22.20;97.00
49503;DHT22;35409;48.776;9.204;2023-09-19T11:49:17;22.50;96.90
49503;DHT22;35409;48.776;9.204;2023-09-19T11:51:46;22.50;96.30
49503;DHT22;35409;48.776;9.204;2023-09-19T11:54:13;22.50;96.40
49503;DHT22;35409;48.776;9.204;2023-09-19T11:56:44;22.80;96.40
49503;DHT22;35409;48.776;9.204;2023-09-19T11:59:11;23.30;95.90
49503;DHT22;35409;48.776;9.204;2023-09-19T12:01:40;23.70;95.40
49503;DHT22;35409;48.776;9.204;2023-09-19T12:04:11;24.20;95.20
49503;DHT22;35409;48.776;9.204;2023-09-19T12:06:37;24.30;94.60
49503;DHT22;35409;48.776;9.204;2023-09-19T12:09:13;24.30;94.40
49503;DHT22;35409;48.776;9.204;2023-09-19T12:11:42;24.30;94.40
49503;DHT22;35409;48.776;9.204;2023-09-19T12:14:10;24.50;94.20
49503;DHT22;35409;48.776;9.204;2023-09-19T12:16:35;24.80;94.00
49503;DHT22;35409;48.776;9.204;2023-09-19T12:19:20;24.90;93.50
49503;DHT22;35409;48.776;9.204;2023-09-19T12:22:01;25.10;93.20
49503;DHT22;35409;48.776;9.204;2023-09-19T12:24:32;25.40;92.80
49503;DHT22;35409;48.776;9.204;2023-09-19T12:27:03;25.40;92.50
49503;DHT22;35409;48.776;9.204;2023-09-19T12:32:09;25.90;92.20
49503;DHT22;35409;48.776;9.204;2023-09-19T12:34:35;26.20;91.30
49503;DHT22;35409;48.776;9.204;2023-09-19T12:39:43;26.10;91.00
49503;DHT22;35409;48.776;9.204;2023-09-19T12:42:10;26.00;91.40
49503;DHT22;35409;48.776;9.204;2023-09-19T12:44:41;26.40;91.10
49503;DHT22;35409;48.776;9.204;2023-09-19T12:47:18;27.00;90.50
49503;DHT22;35409;48.776;9.204;2023-09-19T12:50:14;27.40;90.10
49503;DHT22;35409;48.776;9.204;2023-09-19T12:52:46;27.60;89.30
49503;DHT22;35409;48.776;9.204;2023-09-19T12:55:25;27.00;88.80
49503;DHT22;35409;48.776;9.204;2023-09-19T12:57:59;26.20;90.00
49503;DHT22;35409;48.776;9.204;2023-09-19T13:00:36;26.10;90.20
49503;DHT22;35409;48.776;9.204;2023-09-19T13:03:19;25.70;90.00
49503;DHT22;35409;48.776;9.204;2023-09-19T13:05:58;25.50;90.00
49503;DHT22;35409;48.776;9.204;2023-09-19T13:08:34;25.30;90.20
49503;DHT22;35409;48.776;9.204;2023-09-19T13:11:16;25.60;90.40
49503;DHT22;35409;48.776;9.204;2023-09-19T13:13:48;26.00;90.20
49503;DHT22;35409;48.776;9.204;2023-09-19T13:16:15;25.90;90.00
49503;DHT22;35409;48.776;9.204;2023-09-19T13:18:49;25.70;89.40
49503;DHT22;35409;48.776;9.204;2023-09-19T13:21:34;25.60;90.20
49503;DHT22;35409;48.776;9.204;2023-09-19T13:24:24;25.70;90.00
49503;DHT22;35409;48.776;9.204;2023-09-19T13:26:54;25.50;90.00
49503;DHT22;35409;48.776;9.204;2023-09-19T13:29:20;25.40;89.60
49503;DHT22;35409;48.776;9.204;2023-09-19T13:31:47;25.40;90.00
49503;DHT22;35409;48.776;9.204;2023-09-19T13:34:13;25.30;90.20
49503;DHT22;35409;48.776;9.204;2023-09-19T13:36:41;25.50;89.70
49503;DHT22;35409;48.776;9.204;2023-09-19T13:39:07;25.70;88.90
49503;DHT22;35409;48.776;9.204;2023-09-19T13:41:37;25.80;89.10
49503;DHT22;35409;48.776;9.204;2023-09-19T13:44:03;25.40;89.10
49503;DHT22;35409;48.776;9.204;2023-09-19T13:46:30;25.00;89.90
49503;DHT22;35409;48.776;9.204;2023-09-19T13:48:58;24.90;90.10
49503;DHT22;35409;48.776;9.204;2023-09-19T13:51:26;24.90;90.30
49503;DHT22;35409;48.776;9.204;2023-09-19T13:53:51;25.00;90.10
49503;DHT22;35409;48.776;9.204;2023-09-19T13:56:20;25.10;90.10
49503;DHT22;35409;48.776;9.204;2023-09-19T13:58:46;25.30;88.50
49503;DHT22;35409;48.776;9.204;2023-09-19T14:01:11;25.30;87.80
49503;DHT22;35409;48.776;9.204;2023-09-19T14:03:41;25.40;87.60
49503;DHT22;35409;48.776;9.204;2023-09-19T14:06:12;25.30;88.20
49503;DHT22;35409;48.776;9.204;2023-09-19T14:08:37;25.30;88.40
49503;DHT22;35409;48.776;9.204;2023-09-19T14:11:08;25.40;88.10
49503;DHT22;35409;48.776;9.204;2023-09-19T14:13:34;25.60;88.30
49503;DHT22;35409;48.776;9.204;2023-09-19T14:16:04;25.80;88.00
49503;DHT22;35409;48.776;9.204;2023-09-19T14:18:30;25.90;86.80
49503;DHT22;35409;48.776;9.204;2023-09-19T14:20:56;25.80;87.60
49503;DHT22;35409;48.776;9.204;2023-09-19T14:23:22;25.80;87.30
49503;DHT22;35409;48.776;9.204;2023-09-19T14:25:48;25.70;86.90
49503;DHT22;35409;48.776;9.204;2023-09-19T14:28:14;25.50;87.10
49503;DHT22;35409;48.776;9.204;2023-09-19T14:30:40;25.20;86.80
49503;DHT22;35409;48.776;9.204;2023-09-19T14:33:05;25.00;86.50
49503;DHT22;35409;48.776;9.204;2023-09-19T14:35:31;24.90;86.10
49503;DHT22;35409;48.776;9.204;2023-09-19T14:37:57;24.80;86.10
49503;DHT22;35409;48.776;9.204;2023-09-19T14:40:22;24.70;85.80
49503;DHT22;35409;48.776;9.204;2023-09-19T14:42:48;24.60;86.00
49503;DHT22;35409;48.776;9.204;2023-09-19T14:45:14;24.60;86.60
49503;DHT22;35409;48.776;9.204;2023-09-19T14:47:45;24.80;85.80
49503;DHT22;35409;48.776;9.204;2023-09-19T14:50:11;24.90;85.20
49503;DHT22;35409;48.776;9.204;2023-09-19T14:52:38;25.00;85.70
49503;DHT22;35409;48.776;9.204;2023-09-19T14:55:06;25.20;85.60
49503;DHT22;35409;48.776;9.204;2023-09-19T14:57:32;25.30;84.60
49503;DHT22;35409;48.776;9.204;2023-09-19T14:59:58;25.40;84.70
49503;DHT22;35409;48.776;9.204;2023-09-19T15:02:25;25.50;84.00
49503;DHT22;35409;48.776;9.204;2023-09-19T15:04:52;25.50;84.00
49503;DHT22;35409;48.776;9.204;2023-09-19T15:07:18;25.50;84.30
49503;DHT22;35409;48.776;9.204;2023-09-19T15:09:44;25.40;84.50
49503;DHT22;35409;48.776;9.204;2023-09-19T15:12:10;25.30;84.20
49503;DHT22;35409;48.776;9.204;2023-09-19T15:14:40;25.10;84.80
49503;DHT22;35409;48.776;9.204;2023-09-19T15:17:07;25.00;84.60
49503;DHT22;35409;48.776;9.204;2023-09-19T15:19:33;24.90;85.60
49503;DHT22;35409;48.776;9.204;2023-09-19T15:21:58;24.80;85.40
49503;DHT22;35409;48.776;9.204;2023-09-19T15:24:24;24.60;85.30
49503;DHT22;35409;48.776;9.204;2023-09-19T15:26:52;24.50;85.70
49503;DHT22;35409;48.776;9.204;2023-09-19T15:29:17;24.40;86.10
49503;DHT22;35409;48.776;9.204;2023-09-19T15:31:43;24.20;86.60
49503;DHT22;35409;48.776;9.204;2023-09-19T15:34:09;24.20;87.20
49503;DHT22;35409;48.776;9.204;2023-09-19T15:36:34;24.20;86.40
49503;DHT22;35409;48.776;9.204;2023-09-19T15:39:04;24.20;86.50
49503;DHT22;35409;48.776;9.204;2023-09-19T15:41:35;24.30;86.80
49503;DHT22;35409;48.776;9.204;2023-09-19T15:44:10;24.60;85.60
49503;DHT22;35409;48.776;9.204;2023-09-19T15:46:36;24.60;85.50
49503;DHT22;35409;48.776;9.204;2023-09-19T15:49:03;24.70;85.50
49503;DHT22;35409;48.776;9.204;2023-09-19T15:51:28;24.60;85.70
49503;DHT22;35409;48.776;9.204;2023-09-19T15:53:55;24.50;86.10
49503;DHT22;35409;48.776;9.204;2023-09-19T15:56:22;24.50;86.80
49503;DHT22;35409;48.776;9.204;2023-09-19T15:58:50;24.50;86.70
49503;DHT22;35409;48.776;9.204;2023-09-19T16:01:16;24.50;86.60
49503;DHT22;35409;48.776;9.204;2023-09-19T16:03:47;24.50;86.50
49503;DHT22;35409;48.776;9.204;2023-09-19T16:06:15;24.60;86.10
49503;DHT22;35409;48.776;9.204;2023-09-19T16:08:42;24.50;86.70
49503;DHT22;35409;48.776;9.204;2023-09-19T16:11:09;24.50;86.50
49503;DHT22;35409;48.776;9.204;2023-09-19T16:13:36;24.30;86.80
49503;DHT22;35409;48.776;9.204;2023-09-19T16:16:02;24.10;87.10
49503;DHT22;35409;48.776;9.204;2023-09-19T16:18:29;23.90;86.90
49503;DHT22;35409;48.776;9.204;2023-09-19T16:21:03;23.70;87.50
49503;DHT22;35409;48.776;9.204;2023-09-19T16:23:32;23.50;87.90
49503;DHT22;35409;48.776;9.204;2023-09-19T16:26:08;23.30;88.30
49503;DHT22;35409;48.776;9.204;2023-09-19T16:28:35;23.20;89.30